Airport View

Enter AWOS ICAO identifier for current METAR.

ex. KFNL

KRVL 080550Z AUTO 00000KT 7SM CLR 18/18 A3016 RMK AO2

8 Aug 2020 05:50

Frequency: 123.85

Phone: 717-667-3993

Other Area AWOS: KUNV - KLHV - KSEG - KAOO

TAF AMD KUNV 080305Z 0803/0824 00000KT 6SM BR BKN020 FM080900 00000KT 1SM BR OVC008 FM081400 00000KT P6SM SCT040 FM081800 VRB03KT P6SM BKN250